sensor_id;sensor_type;location;lat;lon;timestamp;pressure;altitude;pressure_sealevel;temperature;humidity
11347;BME280;5728;42.722;23.258;2023-01-31T00:01:12;94306.94;;;0.84;80.42
11347;BME280;5728;42.722;23.258;2023-01-31T00:03:40;94310.91;;;0.64;79.84
11347;BME280;5728;42.722;23.258;2023-01-31T00:06:13;94305.72;;;0.58;80.25
11347;BME280;5728;42.722;23.258;2023-01-31T00:08:41;94307.84;;;0.29;80.98
11347;BME280;5728;42.722;23.258;2023-01-31T00:11:08;94305.09;;;0.73;80.63
11347;BME280;5728;42.722;23.258;2023-01-31T00:13:36;94318.06;;;0.88;80.18
11347;BME280;5728;42.722;23.258;2023-01-31T00:16:05;94308.19;;;0.53;80.70
11347;BME280;5728;42.722;23.258;2023-01-31T00:18:32;94310.97;;;0.69;81.08
11347;BME280;5728;42.722;23.258;2023-01-31T00:21:07;94317.53;;;0.53;81.08
11347;BME280;5728;42.722;23.258;2023-01-31T00:23:34;94319.84;;;0.36;80.90
11347;BME280;5728;42.722;23.258;2023-01-31T00:26:09;94314.13;;;0.51;80.80
11347;BME280;5728;42.722;23.258;2023-01-31T00:28:36;94302.31;;;0.02;81.89
11347;BME280;5728;42.722;23.258;2023-01-31T00:31:05;94304.81;;;0.00;82.81
11347;BME280;5728;42.722;23.258;2023-01-31T00:33:32;94292.44;;;0.23;82.45
11347;BME280;5728;42.722;23.258;2023-01-31T00:36:02;94297.41;;;0.14;82.87
11347;BME280;5728;42.722;23.258;2023-01-31T00:38:29;94301.63;;;0.12;83.06
11347;BME280;5728;42.722;23.258;2023-01-31T00:40:55;94304.19;;;0.14;84.25
11347;BME280;5728;42.722;23.258;2023-01-31T00:43:22;94304.81;;;0.00;84.45
11347;BME280;5728;42.722;23.258;2023-01-31T00:45:49;94315.31;;;0.19;83.62
11347;BME280;5728;42.722;23.258;2023-01-31T00:48:17;94313.25;;;0.50;82.87
11347;BME280;5728;42.722;23.258;2023-01-31T00:50:43;94306.63;;;0.61;81.93
11347;BME280;5728;42.722;23.258;2023-01-31T00:53:10;94296.03;;;0.36;82.30
11347;BME280;5728;42.722;23.258;2023-01-31T00:55:37;94295.84;;;0.24;82.79
11347;BME280;5728;42.722;23.258;2023-01-31T00:58:03;94296.41;;;0.05;84.02
11347;BME280;5728;42.722;23.258;2023-01-31T01:00:31;94294.31;;;0.33;83.82
11347;BME280;5728;42.722;23.258;2023-01-31T01:02:58;94318.47;;;0.04;83.46
11347;BME280;5728;42.722;23.258;2023-01-31T01:05:26;94310.84;;;0.04;83.52
11347;BME280;5728;42.722;23.258;2023-01-31T01:07:53;94322.56;;;-0.06;83.84
11347;BME280;5728;42.722;23.258;2023-01-31T01:10:20;94319.84;;;-0.15;84.58
11347;BME280;5728;42.722;23.258;2023-01-31T01:12:46;94322.66;;;-0.01;84.15
11347;BME280;5728;42.722;23.258;2023-01-31T01:15:13;94306.47;;;-0.03;82.75
11347;BME280;5728;42.722;23.258;2023-01-31T01:17:40;94319.50;;;0.15;83.56
11347;BME280;5728;42.722;23.258;2023-01-31T01:20:08;94300.00;;;0.17;83.85
11347;BME280;5728;42.722;23.258;2023-01-31T01:22:37;94305.78;;;0.07;83.80
11347;BME280;5728;42.722;23.258;2023-01-31T01:25:04;94300.16;;;0.26;83.22
11347;BME280;5728;42.722;23.258;2023-01-31T01:27:31;94299.78;;;0.60;82.50
11347;BME280;5728;42.722;23.258;2023-01-31T01:29:58;94298.00;;;0.53;82.88
11347;BME280;5728;42.722;23.258;2023-01-31T01:32:26;94301.91;;;0.89;82.52
11347;BME280;5728;42.722;23.258;2023-01-31T01:34:53;94299.53;;;1.04;81.81
11347;BME280;5728;42.722;23.258;2023-01-31T01:37:20;94298.13;;;1.27;81.60
11347;BME280;5728;42.722;23.258;2023-01-31T01:39:49;94294.97;;;1.48;77.99
11347;BME280;5728;42.722;23.258;2023-01-31T01:42:17;94304.97;;;1.28;79.94
11347;BME280;5728;42.722;23.258;2023-01-31T01:44:52;94311.13;;;0.78;77.32
11347;BME280;5728;42.722;23.258;2023-01-31T01:47:37;94315.41;;;0.82;78.35
11347;BME280;5728;42.722;23.258;2023-01-31T01:50:10;94311.91;;;0.74;76.73
11347;BME280;5728;42.722;23.258;2023-01-31T01:52:42;94310.25;;;0.79;77.56
11347;BME280;5728;42.722;23.258;2023-01-31T01:55:16;94306.22;;;0.34;75.93
11347;BME280;5728;42.722;23.258;2023-01-31T01:57:46;94326.09;;;0.56;76.31
11347;BME280;5728;42.722;23.258;2023-01-31T02:00:18;94305.94;;;0.73;77.11
11347;BME280;5728;42.722;23.258;2023-01-31T02:02:48;94310.97;;;0.67;75.44
11347;BME280;5728;42.722;23.258;2023-01-31T02:05:19;94317.81;;;0.71;76.41
11347;BME280;5728;42.722;23.258;2023-01-31T02:07:46;94313.03;;;0.94;74.91
11347;BME280;5728;42.722;23.258;2023-01-31T02:10:19;94329.00;;;0.81;74.04
11347;BME280;5728;42.722;23.258;2023-01-31T02:12:48;94335.50;;;0.59;75.18
11347;BME280;5728;42.722;23.258;2023-01-31T02:15:15;94325.34;;;0.63;74.90
11347;BME280;5728;42.722;23.258;2023-01-31T02:17:41;94314.28;;;0.60;74.89
11347;BME280;5728;42.722;23.258;2023-01-31T02:20:26;94315.16;;;0.62;76.00
11347;BME280;5728;42.722;23.258;2023-01-31T02:23:11;94315.91;;;0.55;74.74
11347;BME280;5728;42.722;23.258;2023-01-31T02:26:31;94300.44;;;0.46;74.77
11347;BME280;5728;42.722;23.258;2023-01-31T02:29:27;94318.22;;;0.41;75.07
11347;BME280;5728;42.722;23.258;2023-01-31T02:32:40;94316.81;;;0.61;76.83
11347;BME280;5728;42.722;23.258;2023-01-31T02:35:18;94316.78;;;0.58;74.17
11347;BME280;5728;42.722;23.258;2023-01-31T02:37:58;94321.69;;;0.46;73.92
11347;BME280;5728;42.722;23.258;2023-01-31T02:40:34;94323.34;;;0.43;75.37
11347;BME280;5728;42.722;23.258;2023-01-31T02:43:08;94317.53;;;0.50;74.90
11347;BME280;5728;42.722;23.258;2023-01-31T02:45:41;94316.94;;;0.68;74.27
11347;BME280;5728;42.722;23.258;2023-01-31T02:48:18;94321.28;;;0.75;75.68
11347;BME280;5728;42.722;23.258;2023-01-31T02:50:58;94338.03;;;0.59;76.07
11347;BME280;5728;42.722;23.258;2023-01-31T02:53:30;94336.31;;;0.56;75.09
11347;BME280;5728;42.722;23.258;2023-01-31T02:56:02;94351.16;;;0.83;74.64
11347;BME280;5728;42.722;23.258;2023-01-31T02:58:48;94380.97;;;0.86;75.64
11347;BME280;5728;42.722;23.258;2023-01-31T03:01:20;94356.22;;;0.80;75.49
11347;BME280;5728;42.722;23.258;2023-01-31T03:03:50;94362.63;;;0.52;77.42
11347;BME280;5728;42.722;23.258;2023-01-31T03:09:31;94367.78;;;0.58;78.07
11347;BME280;5728;42.722;23.258;2023-01-31T03:12:08;94377.69;;;0.93;77.50
11347;BME280;5728;42.722;23.258;2023-01-31T03:14:46;94380.34;;;1.02;78.21
11347;BME280;5728;42.722;23.258;2023-01-31T03:17:22;94383.22;;;1.23;78.54
11347;BME280;5728;42.722;23.258;2023-01-31T03:20:14;94389.69;;;1.01;76.56
11347;BME280;5728;42.722;23.258;2023-01-31T03:22:46;94390.69;;;1.11;76.55
11347;BME280;5728;42.722;23.258;2023-01-31T03:25:16;94395.47;;;1.51;76.25
11347;BME280;5728;42.722;23.258;2023-01-31T03:27:47;94387.97;;;1.63;76.39
11347;BME280;5728;42.722;23.258;2023-01-31T03:30:20;94396.56;;;1.71;75.75
11347;BME280;5728;42.722;23.258;2023-01-31T03:32:52;94399.75;;;1.54;76.30
11347;BME280;5728;42.722;23.258;2023-01-31T03:35:26;94402.81;;;1.27;76.63
11347;BME280;5728;42.722;23.258;2023-01-31T03:37:58;94393.00;;;0.96;77.22
11347;BME280;5728;42.722;23.258;2023-01-31T03:40:29;94398.41;;;0.58;78.46
11347;BME280;5728;42.722;23.258;2023-01-31T03:42:59;94404.56;;;0.20;81.26
11347;BME280;5728;42.722;23.258;2023-01-31T03:45:29;94409.63;;;0.19;82.42
11347;BME280;5728;42.722;23.258;2023-01-31T03:47:58;94407.09;;;0.20;83.44
11347;BME280;5728;42.722;23.258;2023-01-31T03:50:30;94412.84;;;0.09;84.57
11347;BME280;5728;42.722;23.258;2023-01-31T03:52:59;94427.34;;;0.13;84.86
11347;BME280;5728;42.722;23.258;2023-01-31T03:55:30;94418.41;;;0.34;85.24
11347;BME280;5728;42.722;23.258;2023-01-31T03:57:58;94426.78;;;0.27;84.42
11347;BME280;5728;42.722;23.258;2023-01-31T04:00:26;94425.66;;;0.13;85.81
11347;BME280;5728;42.722;23.258;2023-01-31T04:02:54;94420.13;;;0.35;85.33
11347;BME280;5728;42.722;23.258;2023-01-31T04:05:23;94423.13;;;0.13;85.53
11347;BME280;5728;42.722;23.258;2023-01-31T04:07:56;94429.88;;;0.10;86.26
11347;BME280;5728;42.722;23.258;2023-01-31T04:10:22;94439.16;;;0.08;86.71
11347;BME280;5728;42.722;23.258;2023-01-31T04:12:50;94443.13;;;-0.08;86.89
11347;BME280;5728;42.722;23.258;2023-01-31T04:15:16;94442.28;;;-0.09;86.81
11347;BME280;5728;42.722;23.258;2023-01-31T04:17:43;94440.00;;;0.07;86.51
11347;BME280;5728;42.722;23.258;2023-01-31T04:20:10;94451.03;;;0.06;87.27
11347;BME280;5728;42.722;23.258;2023-01-31T04:22:37;94446.06;;;0.13;87.27
11347;BME280;5728;42.722;23.258;2023-01-31T04:25:05;94445.19;;;0.11;87.53
11347;BME280;5728;42.722;23.258;2023-01-31T04:27:32;94452.09;;;0.18;88.06
11347;BME280;5728;42.722;23.258;2023-01-31T04:29:59;94449.28;;;0.03;88.58
11347;BME280;5728;42.722;23.258;2023-01-31T04:32:26;94451.59;;;-0.09;89.41
11347;BME280;5728;42.722;23.258;2023-01-31T04:34:52;94452.47;;;-0.07;89.97
11347;BME280;5728;42.722;23.258;2023-01-31T04:37:19;94448.81;;;-0.21;90.24
11347;BME280;5728;42.722;23.258;2023-01-31T04:39:45;94450.69;;;-0.13;90.39
11347;BME280;5728;42.722;23.258;2023-01-31T04:42:13;94449.75;;;-0.16;90.75
11347;BME280;5728;42.722;23.258;2023-01-31T04:44:39;94454.03;;;-0.15;91.26
11347;BME280;5728;42.722;23.258;2023-01-31T04:47:06;94454.88;;;-0.16;91.74
11347;BME280;5728;42.722;23.258;2023-01-31T04:49:33;94464.59;;;-0.37;92.33
11347;BME280;5728;42.722;23.258;2023-01-31T04:52:00;94468.03;;;-0.37;92.91
11347;BME280;5728;42.722;23.258;2023-01-31T04:54:26;94474.94;;;-0.31;93.11
11347;BME280;5728;42.722;23.258;2023-01-31T04:56:53;94461.38;;;-0.30;93.80
11347;BME280;5728;42.722;23.258;2023-01-31T04:59:20;94466.59;;;-0.24;93.74
11347;BME280;5728;42.722;23.258;2023-01-31T05:01:47;94462.34;;;-0.24;93.65
11347;BME280;5728;42.722;23.258;2023-01-31T05:04:13;94469.22;;;-0.20;93.94
11347;BME280;5728;42.722;23.258;2023-01-31T05:06:40;94469.13;;;-0.24;93.64
11347;BME280;5728;42.722;23.258;2023-01-31T05:09:06;94461.69;;;-0.15;93.07
11347;BME280;5728;42.722;23.258;2023-01-31T05:11:33;94456.59;;;-0.15;92.81
11347;BME280;5728;42.722;23.258;2023-01-31T05:13:59;94457.72;;;0.00;92.35
11347;BME280;5728;42.722;23.258;2023-01-31T05:16:27;94476.00;;;0.23;91.98
11347;BME280;5728;42.722;23.258;2023-01-31T05:18:54;94478.72;;;0.32;91.27
11347;BME280;5728;42.722;23.258;2023-01-31T05:21:20;94492.56;;;0.45;90.07
11347;BME280;5728;42.722;23.258;2023-01-31T05:23:47;94479.56;;;0.31;90.50
11347;BME280;5728;42.722;23.258;2023-01-31T05:26:13;94477.81;;;0.29;91.33
11347;BME280;5728;42.722;23.258;2023-01-31T05:28:40;94475.97;;;0.22;91.40
11347;BME280;5728;42.722;23.258;2023-01-31T05:31:07;94472.56;;;0.21;92.08
11347;BME280;5728;42.722;23.258;2023-01-31T05:33:35;94469.34;;;0.31;91.34
11347;BME280;5728;42.722;23.258;2023-01-31T05:36:02;94472.56;;;0.23;92.39
11347;BME280;5728;42.722;23.258;2023-01-31T05:38:28;94482.88;;;0.27;92.29
11347;BME280;5728;42.722;23.258;2023-01-31T05:40:55;94473.78;;;0.40;91.65
11347;BME280;5728;42.722;23.258;2023-01-31T05:43:21;94479.59;;;0.34;91.38
11347;BME280;5728;42.722;23.258;2023-01-31T05:45:48;94478.75;;;0.35;90.72
11347;BME280;5728;42.722;23.258;2023-01-31T05:48:14;94482.88;;;0.27;90.62
11347;BME280;5728;42.722;23.258;2023-01-31T05:50:42;94484.88;;;0.43;90.14
11347;BME280;5728;42.722;23.258;2023-01-31T05:53:08;94487.53;;;0.51;90.32
11347;BME280;5728;42.722;23.258;2023-01-31T05:55:35;94491.84;;;0.53;90.73
11347;BME280;5728;42.722;23.258;2023-01-31T05:58:02;94497.66;;;0.45;90.62
11347;BME280;5728;42.722;23.258;2023-01-31T06:00:28;94493.50;;;0.51;91.56
11347;BME280;5728;42.722;23.258;2023-01-31T06:02:55;94476.59;;;0.56;90.97
11347;BME280;5728;42.722;23.258;2023-01-31T06:05:22;94479.28;;;0.65;91.42
11347;BME280;5728;42.722;23.258;2023-01-31T06:07:50;94488.53;;;0.57;90.37
11347;BME280;5728;42.722;23.258;2023-01-31T06:10:16;94492.16;;;0.72;91.03
11347;BME280;5728;42.722;23.258;2023-01-31T06:12:43;94493.84;;;0.70;90.05
11347;BME280;5728;42.722;23.258;2023-01-31T06:15:10;94492.16;;;0.72;90.33
11347;BME280;5728;42.722;23.258;2023-01-31T06:17:36;94488.63;;;0.63;90.20
11347;BME280;5728;42.722;23.258;2023-01-31T06:20:03;94486.19;;;0.70;91.00
11347;BME280;5728;42.722;23.258;2023-01-31T06:22:30;94492.03;;;0.62;91.30
11347;BME280;5728;42.722;23.258;2023-01-31T06:24:57;94500.63;;;0.68;91.12
11347;BME280;5728;42.722;23.258;2023-01-31T06:27:24;94501.44;;;0.68;91.54
11347;BME280;5728;42.722;23.258;2023-01-31T06:29:50;94504.94;;;0.73;91.13
11347;BME280;5728;42.722;23.258;2023-01-31T06:32:17;94505.72;;;0.69;91.50
11347;BME280;5728;42.722;23.258;2023-01-31T06:34:44;94507.63;;;0.81;91.04
11347;BME280;5728;42.722;23.258;2023-01-31T06:37:10;94499.94;;;0.79;91.42
11347;BME280;5728;42.722;23.258;2023-01-31T06:39:36;94512.81;;;0.85;91.03
11347;BME280;5728;42.722;23.258;2023-01-31T06:42:04;94504.94;;;0.73;90.61
11347;BME280;5728;42.722;23.258;2023-01-31T06:44:31;94506.78;;;0.82;90.36
11347;BME280;5728;42.722;23.258;2023-01-31T06:46:58;94506.72;;;0.77;90.86
11347;BME280;5728;42.722;23.258;2023-01-31T06:49:24;94507.59;;;0.78;91.17
11347;BME280;5728;42.722;23.258;2023-01-31T06:51:51;94514.41;;;0.79;90.71
11347;BME280;5728;42.722;23.258;2023-01-31T06:54:17;94504.34;;;0.88;91.00
11347;BME280;5728;42.722;23.258;2023-01-31T06:56:44;94495.78;;;0.84;90.39
11347;BME280;5728;42.722;23.258;2023-01-31T06:59:12;94504.31;;;0.85;90.68
11347;BME280;5728;42.722;23.258;2023-01-31T07:01:39;94502.75;;;0.93;89.53
11347;BME280;5728;42.722;23.258;2023-01-31T07:04:06;94505.63;;;1.14;89.66
11347;BME280;5728;42.722;23.258;2023-01-31T07:06:32;94505.81;;;1.26;88.59
11347;BME280;5728;42.722;23.258;2023-01-31T07:08:59;94520.13;;;1.16;88.93
11347;BME280;5728;42.722;23.258;2023-01-31T07:11:25;94509.16;;;1.22;88.81
11347;BME280;5728;42.722;23.258;2023-01-31T07:13:52;94517.75;;;1.28;88.89
11347;BME280;5728;42.722;23.258;2023-01-31T07:16:20;94506.84;;;1.37;88.79
11347;BME280;5728;42.722;23.258;2023-01-31T07:18:50;94512.69;;;1.30;88.57
11347;BME280;5728;42.722;23.258;2023-01-31T07:21:17;94514.38;;;1.29;88.90
11347;BME280;5728;42.722;23.258;2023-01-31T07:23:43;94522.66;;;1.15;89.97
11347;BME280;5728;42.722;23.258;2023-01-31T07:26:10;94529.34;;;1.07;90.47
11347;BME280;5728;42.722;23.258;2023-01-31T07:28:37;94523.19;;;0.96;91.41
11347;BME280;5728;42.722;23.258;2023-01-31T07:31:03;94514.72;;;0.97;91.60
11347;BME280;5728;42.722;23.258;2023-01-31T07:33:32;94517.78;;;1.30;91.35
11347;BME280;5728;42.722;23.258;2023-01-31T07:35:59;94523.53;;;1.17;91.03
11347;BME280;5728;42.722;23.258;2023-01-31T07:38:26;94520.38;;;1.32;90.33
11347;BME280;5728;42.722;23.258;2023-01-31T07:40:52;94528.88;;;1.32;89.84
11347;BME280;5728;42.722;23.258;2023-01-31T07:43:19;94532.38;;;1.37;90.79
11347;BME280;5728;42.722;23.258;2023-01-31T07:45:46;94533.94;;;1.27;90.78
11347;BME280;5728;42.722;23.258;2023-01-31T07:48:12;94531.34;;;1.26;92.25
11347;BME280;5728;42.722;23.258;2023-01-31T07:50:40;94533.06;;;1.25;91.07
11347;BME280;5728;42.722;23.258;2023-01-31T07:53:06;94520.19;;;1.21;91.52
11347;BME280;5728;42.722;23.258;2023-01-31T07:55:33;94526.22;;;1.23;91.51
11347;BME280;5728;42.722;23.258;2023-01-31T07:57:59;94532.47;;;1.43;91.07
11347;BME280;5728;42.722;23.258;2023-01-31T08:00:26;94538.41;;;1.44;91.86
11347;BME280;5728;42.722;23.258;2023-01-31T08:03:16;94541.94;;;1.52;91.22
11347;BME280;5728;42.722;23.258;2023-01-31T08:06:03;94536.34;;;1.75;90.10
11347;BME280;5728;42.722;23.258;2023-01-31T08:08:31;94538.84;;;1.74;90.51
11347;BME280;5728;42.722;23.258;2023-01-31T08:10:58;94531.09;;;1.66;91.10
11347;BME280;5728;42.722;23.258;2023-01-31T08:13:24;94532.94;;;1.76;90.86
11347;BME280;5728;42.722;23.258;2023-01-31T08:15:52;94540.59;;;1.76;91.09
11347;BME280;5728;42.722;23.258;2023-01-31T08:18:19;94539.06;;;1.87;90.09
11347;BME280;5728;42.722;23.258;2023-01-31T08:20:45;94537.63;;;2.08;89.96
11347;BME280;5728;42.722;23.258;2023-01-31T08:23:13;94537.69;;;2.12;88.22
11347;BME280;5728;42.722;23.258;2023-01-31T08:25:39;94521.56;;;2.18;88.42
11347;BME280;5728;42.722;23.258;2023-01-31T08:28:06;94529.31;;;2.24;87.58
11347;BME280;5728;42.722;23.258;2023-01-31T08:30:33;94529.22;;;2.16;88.00
11347;BME280;5728;42.722;23.258;2023-01-31T08:32:59;94528.69;;;2.44;87.74
11347;BME280;5728;42.722;23.258;2023-01-31T08:35:26;94529.63;;;2.52;87.28
11347;BME280;5728;42.722;23.258;2023-01-31T08:37:52;94521.03;;;2.46;86.63
11347;BME280;5728;42.722;23.258;2023-01-31T08:40:20;94520.91;;;2.37;86.28
11347;BME280;5728;42.722;23.258;2023-01-31T08:42:52;94508.16;;;2.40;86.85
11347;BME280;5728;42.722;23.258;2023-01-31T08:45:18;94511.38;;;2.21;87.67
11347;BME280;5728;42.722;23.258;2023-01-31T08:47:45;94519.09;;;2.27;86.97
11347;BME280;5728;42.722;23.258;2023-01-31T08:50:12;94523.47;;;2.37;87.84
11347;BME280;5728;42.722;23.258;2023-01-31T08:52:38;94529.91;;;2.78;86.34
11347;BME280;5728;42.722;23.258;2023-01-31T08:55:05;94530.09;;;2.98;86.21
11347;BME280;5728;42.722;23.258;2023-01-31T08:57:34;94535.72;;;3.61;84.22
11347;BME280;5728;42.722;23.258;2023-01-31T09:00:01;94535.03;;;3.82;82.86
11347;BME280;5728;42.722;23.258;2023-01-31T09:02:28;94535.78;;;3.69;80.87
11347;BME280;5728;42.722;23.258;2023-01-31T09:04:54;94533.00;;;3.39;81.89
11347;BME280;5728;42.722;23.258;2023-01-31T09:07:20;94527.94;;;3.48;81.92
11347;BME280;5728;42.722;23.258;2023-01-31T09:09:47;94522.88;;;3.54;82.57
11347;BME280;5728;42.722;23.258;2023-01-31T09:12:14;94526.16;;;3.38;82.55
11347;BME280;5728;42.722;23.258;2023-01-31T09:14:42;94532.38;;;3.71;80.39
11347;BME280;5728;42.722;23.258;2023-01-31T09:17:08;94520.22;;;3.43;80.94
11347;BME280;5728;42.722;23.258;2023-01-31T09:19:35;94522.88;;;3.54;81.38
11347;BME280;5728;42.722;23.258;2023-01-31T09:22:02;94515.22;;;3.61;81.04
11347;BME280;5728;42.722;23.258;2023-01-31T09:24:28;94526.63;;;4.12;78.71
11347;BME280;5728;42.722;23.258;2023-01-31T09:26:55;94535.06;;;3.91;79.43
11347;BME280;5728;42.722;23.258;2023-01-31T09:29:21;94518.72;;;3.72;80.84
11347;BME280;5728;42.722;23.258;2023-01-31T09:31:50;94518.16;;;4.29;79.79
11347;BME280;5728;42.722;23.258;2023-01-31T09:34:17;94507.78;;;4.05;79.03
11347;BME280;5728;42.722;23.258;2023-01-31T09:36:43;94499.16;;;3.90;79.40
11347;BME280;5728;42.722;23.258;2023-01-31T09:39:10;94491.25;;;3.53;79.82
11347;BME280;5728;42.722;23.258;2023-01-31T09:41:37;94505.13;;;3.87;79.56
11347;BME280;5728;42.722;23.258;2023-01-31T09:44:09;94493.09;;;3.77;79.63
11347;BME280;5728;42.722;23.258;2023-01-31T09:46:37;94486.28;;;3.80;80.56
11347;BME280;5728;42.722;23.258;2023-01-31T09:49:07;94486.47;;;4.17;79.12
11347;BME280;5728;42.722;23.258;2023-01-31T09:51:36;94473.72;;;4.44;79.57
11347;BME280;5728;42.722;23.258;2023-01-31T09:54:05;94478.94;;;4.76;76.62
11347;BME280;5728;42.722;23.258;2023-01-31T09:56:34;94475.38;;;4.25;77.32
11347;BME280;5728;42.722;23.258;2023-01-31T09:59:06;94487.91;;;3.65;77.36
11347;BME280;5728;42.722;23.258;2023-01-31T10:01:43;94497.22;;;3.54;80.45
11347;BME280;5728;42.722;23.258;2023-01-31T10:04:19;94487.22;;;3.96;80.30
11347;BME280;5728;42.722;23.258;2023-01-31T10:06:50;94488.25;;;4.37;77.99
11347;BME280;5728;42.722;23.258;2023-01-31T10:09:22;94476.41;;;4.91;77.38
11347;BME280;5728;42.722;23.258;2023-01-31T10:11:51;94481.53;;;5.42;75.24
11347;BME280;5728;42.722;23.258;2023-01-31T10:14:22;94473.81;;;4.76;74.84
11347;BME280;5728;42.722;23.258;2023-01-31T10:16:55;94466.94;;;4.67;77.11
11347;BME280;5728;42.722;23.258;2023-01-31T10:19:25;94463.50;;;4.79;74.75
11347;BME280;5728;42.722;23.258;2023-01-31T10:21:54;94466.88;;;4.44;75.21
11347;BME280;5728;42.722;23.258;2023-01-31T10:24:25;94465.19;;;4.49;76.61
11347;BME280;5728;42.722;23.258;2023-01-31T10:26:56;94459.94;;;4.21;77.05
11347;BME280;5728;42.722;23.258;2023-01-31T10:29:25;94472.66;;;3.92;77.53
11347;BME280;5728;42.722;23.258;2023-01-31T10:31:54;94477.84;;;4.00;79.70
11347;BME280;5728;42.722;23.258;2023-01-31T10:34:23;94462.56;;;4.39;76.85
11347;BME280;5728;42.722;23.258;2023-01-31T10:36:54;94463.19;;;3.79;77.45
11347;BME280;5728;42.722;23.258;2023-01-31T10:39:24;94464.81;;;3.62;79.79
11347;BME280;5728;42.722;23.258;2023-01-31T10:42:04;94456.38;;;3.84;80.48
11347;BME280;5728;42.722;23.258;2023-01-31T10:44:35;94453.25;;;4.74;78.66
11347;BME280;5728;42.722;23.258;2023-01-31T10:47:07;94453.06;;;4.00;77.52
11347;BME280;5728;42.722;23.258;2023-01-31T10:49:36;94449.78;;;4.49;77.95
11347;BME280;5728;42.722;23.258;2023-01-31T10:52:09;94445.56;;;5.07;76.15
11347;BME280;5728;42.722;23.258;2023-01-31T10:54:45;94453.28;;;5.03;75.50
11347;BME280;5728;42.722;23.258;2023-01-31T10:57:13;94449.84;;;4.92;74.84
11347;BME280;5728;42.722;23.258;2023-01-31T10:59:41;94454.97;;;4.89;77.79
11347;BME280;5728;42.722;23.258;2023-01-31T11:02:13;94462.56;;;4.36;77.32
11347;BME280;5728;42.722;23.258;2023-01-31T11:04:41;94460.00;;;4.34;77.41
11347;BME280;5728;42.722;23.258;2023-01-31T11:07:09;94456.56;;;4.29;78.11
11347;BME280;5728;42.722;23.258;2023-01-31T11:09:37;94461.59;;;4.02;78.17
11347;BME280;5728;42.722;23.258;2023-01-31T11:12:04;94460.63;;;3.77;77.74
11347;BME280;5728;42.722;23.258;2023-01-31T11:14:31;94457.91;;;3.47;79.98
11347;BME280;5728;42.722;23.258;2023-01-31T11:16:59;94474.03;;;3.34;81.31
11347;BME280;5728;42.722;23.258;2023-01-31T11:19:28;94469.69;;;3.26;80.93
11347;BME280;5728;42.722;23.258;2023-01-31T11:21:57;94471.38;;;3.25;81.87
11347;BME280;5728;42.722;23.258;2023-01-31T11:24:26;94469.56;;;3.10;82.47
11347;BME280;5728;42.722;23.258;2023-01-31T11:26:54;94472.94;;;3.03;82.48
11347;BME280;5728;42.722;23.258;2023-01-31T11:29:23;94469.22;;;2.68;82.92
11347;BME280;5728;42.722;23.258;2023-01-31T11:31:52;94478.41;;;2.49;84.58
11347;BME280;5728;42.722;23.258;2023-01-31T11:34:20;94475.06;;;2.55;85.87
11347;BME280;5728;42.722;23.258;2023-01-31T11:36:46;94481.09;;;2.60;85.84
11347;BME280;5728;42.722;23.258;2023-01-31T11:39:24;94476.22;;;2.87;86.56
11347;BME280;5728;42.722;23.258;2023-01-31T11:41:52;94479.38;;;2.59;86.19
11347;BME280;5728;42.722;23.258;2023-01-31T11:44:19;94482.53;;;2.34;88.29
11347;BME280;5728;42.722;23.258;2023-01-31T11:46:47;94464.59;;;2.32;88.53
11347;BME280;5728;42.722;23.258;2023-01-31T11:49:18;94468.13;;;2.45;89.83
11347;BME280;5728;42.722;23.258;2023-01-31T11:51:46;94471.34;;;2.26;89.27
11347;BME280;5728;42.722;23.258;2023-01-31T11:54:13;94472.84;;;2.07;89.41
11347;BME280;5728;42.722;23.258;2023-01-31T11:56:42;94466.13;;;2.17;89.26
11347;BME280;5728;42.722;23.258;2023-01-31T11:59:12;94466.16;;;2.18;89.01
11347;BME280;5728;42.722;23.258;2023-01-31T12:01:43;94462.69;;;2.15;89.50
11347;BME280;5728;42.722;23.258;2023-01-31T12:04:13;94465.25;;;2.15;90.25
11347;BME280;5728;42.722;23.258;2023-01-31T12:06:41;94449.06;;;2.17;90.32
11347;BME280;5728;42.722;23.258;2023-01-31T12:09:17;94461.03;;;2.20;90.02
11347;BME280;5728;42.722;23.258;2023-01-31T12:11:48;94463.81;;;2.38;90.62
11347;BME280;5728;42.722;23.258;2023-01-31T12:14:16;94466.91;;;2.10;88.80
11347;BME280;5728;42.722;23.258;2023-01-31T12:16:43;94457.50;;;2.06;88.03
11347;BME280;5728;42.722;23.258;2023-01-31T12:19:15;94459.91;;;1.93;88.29
11347;BME280;5728;42.722;23.258;2023-01-31T12:21:50;94462.50;;;2.00;87.46
11347;BME280;5728;42.722;23.258;2023-01-31T12:24:33;94465.91;;;1.97;88.30
11347;BME280;5728;42.722;23.258;2023-01-31T12:27:03;94460.09;;;2.09;86.80
11347;BME280;5728;42.722;23.258;2023-01-31T12:29:49;94462.56;;;2.03;87.28
11347;BME280;5728;42.722;23.258;2023-01-31T12:32:27;94465.38;;;2.27;86.96
11347;BME280;5728;42.722;23.258;2023-01-31T12:35:02;94467.06;;;2.25;86.70
11347;BME280;5728;42.722;23.258;2023-01-31T12:37:33;94473.09;;;2.28;87.89
11347;BME280;5728;42.722;23.258;2023-01-31T12:40:24;94465.28;;;2.18;86.86
11347;BME280;5728;42.722;23.258;2023-01-31T12:42:55;94464.34;;;2.10;87.02
11347;BME280;5728;42.722;23.258;2023-01-31T12:45:33;94470.31;;;2.09;86.70
11347;BME280;5728;42.722;23.258;2023-01-31T12:48:10;94457.69;;;2.25;86.49
11347;BME280;5728;42.722;23.258;2023-01-31T12:50:40;94462.03;;;2.31;87.66
11347;BME280;5728;42.722;23.258;2023-01-31T12:56:05;94445.78;;;2.26;85.69
11347;BME280;5728;42.722;23.258;2023-01-31T12:58:40;94458.75;;;2.47;87.27
11347;BME280;5728;42.722;23.258;2023-01-31T13:01:12;94457.28;;;2.70;86.53
11347;BME280;5728;42.722;23.258;2023-01-31T13:03:52;94448.56;;;2.50;85.08
11347;BME280;5728;42.722;23.258;2023-01-31T13:06:25;94450.53;;;2.77;86.73
11347;BME280;5728;42.722;23.258;2023-01-31T13:08:52;94454.59;;;2.53;84.49
11347;BME280;5728;42.722;23.258;2023-01-31T13:11:23;94461.34;;;2.48;85.15
11347;BME280;5728;42.722;23.258;2023-01-31T13:13:52;94451.06;;;2.42;84.34
11347;BME280;5728;42.722;23.258;2023-01-31T13:16:23;94463.06;;;2.48;85.16
11347;BME280;5728;42.722;23.258;2023-01-31T13:18:51;94468.16;;;2.46;84.48
11347;BME280;5728;42.722;23.258;2023-01-31T13:21:20;94469.72;;;2.32;83.85
11347;BME280;5728;42.722;23.258;2023-01-31T13:23:48;94464.72;;;2.44;84.34
11347;BME280;5728;42.722;23.258;2023-01-31T13:26:19;94467.44;;;2.61;85.19
11347;BME280;5728;42.722;23.258;2023-01-31T13:28:47;94462.34;;;2.61;84.47